Time;durP1;ratioP1;P1;durP2;ratioP2;P2;SDS_P1;SDS_P2;PMS_P1;PMS_P2;Temp;Humidity;BMP_temperature;BMP_pressure;BME280_temperature;BME280_humidity;BME280_pressure;Samples;Min_cycle;Max_cycle;Signal;HPM_P1;HPM_P2
2023/06/30 00:01:32;;;;;;;44.80;16.33;;;25.40;75.50;;;;;;5024202;28;20054;-56
2023/06/30 00:03:58;;;;;;;32.38;16.27;;;25.30;75.50;;;;;;5026354;28;20128;-56
2023/06/30 00:06:24;;;;;;;37.53;16.70;;;25.30;75.40;;;;;;5025298;28;20026;-56
2023/06/30 00:08:49;;;;;;;41.17;16.65;;;25.30;75.60;;;;;;5026941;28;20037;-56
2023/06/30 00:11:15;;;;;;;40.10;16.17;;;25.30;75.60;;;;;;5025918;28;20034;-56
2023/06/30 00:13:40;;;;;;;38.17;16.05;;;25.30;75.60;;;;;;5010437;28;20034;-56
2023/06/30 00:16:06;;;;;;;34.13;15.90;;;25.30;75.70;;;;;;5026981;28;20042;-56
2023/06/30 00:18:32;;;;;;;38.50;15.38;;;25.20;75.80;;;;;;5007679;28;20040;-56
2023/06/30 00:20:57;;;;;;;35.67;16.95;;;25.20;75.90;;;;;;5026533;28;20056;-56
2023/06/30 00:23:27;;;;;;;27.48;15.02;;;25.20;76.00;;;;;;5025465;28;20030;-56
2023/06/30 00:25:53;;;;;;;30.30;15.43;;;25.20;76.20;;;;;;5026272;28;20040;-56
2023/06/30 00:28:18;;;;;;;35.20;15.68;;;25.10;76.20;;;;;;5009210;28;20030;-56
2023/06/30 00:30:44;;;;;;;29.42;15.50;;;25.10;76.20;;;;;;5026250;28;20040;-56
2023/06/30 00:33:10;;;;;;;31.33;15.27;;;25.10;76.10;;;;;;5026824;28;20386;-56
2023/06/30 00:35:35;;;;;;;34.00;16.02;;;25.10;76.10;;;;;;5008834;28;20106;-56
2023/06/30 00:38:01;;;;;;;31.75;14.93;;;25.30;76.20;;;;;;5026834;28;20018;-56
2023/06/30 00:40:26;;;;;;;27.75;15.23;;;25.10;76.00;;;;;;5025887;28;20487;-56
2023/06/30 00:42:52;;;;;;;27.58;15.10;;;25.10;76.10;;;;;;5025033;28;20117;-56
2023/06/30 00:45:17;;;;;;;28.67;15.48;;;25.10;76.10;;;;;;5016503;28;20062;-56
2023/06/30 00:47:43;;;;;;;37.83;15.05;;;25.00;76.00;;;;;;5017707;28;20030;-56
2023/06/30 00:50:09;;;;;;;28.15;15.13;;;25.00;76.00;;;;;;5025111;28;20028;-55
2023/06/30 00:52:35;;;;;;;23.73;15.05;;;25.00;76.00;;;;;;5025998;28;20037;-56
2023/06/30 00:55:00;;;;;;;28.33;15.57;;;25.00;76.20;;;;;;5021975;28;20054;-56
2023/06/30 00:57:26;;;;;;;31.17;15.57;;;24.90;76.20;;;;;;5016109;28;20110;-56
2023/06/30 00:59:51;;;;;;;25.10;15.25;;;24.90;76.20;;;;;;5009414;28;20502;-56
2023/06/30 01:02:24;;;;;;;26.25;14.60;;;24.90;76.10;;;;;;5025086;28;20025;-56
2023/06/30 01:05:05;;;;;;;27.55;15.23;;;24.90;76.20;;;;;;5025003;28;20042;-56
2023/06/30 01:07:52;;;;;;;26.35;15.20;;;24.90;76.30;;;;;;5025181;28;20084;-56
2023/06/30 01:10:23;;;;;;;29.60;14.50;;;24.90;76.30;;;;;;5008105;28;20037;-56
2023/06/30 01:12:49;;;;;;;23.40;15.55;;;24.90;76.20;;;;;;5021736;28;20044;-56
2023/06/30 01:15:14;;;;;;;23.40;14.65;;;24.90;76.20;;;;;;5005253;28;20042;-56
2023/06/30 01:17:48;;;;;;;24.25;14.13;;;24.80;76.30;;;;;;5004425;28;20042;-56
2023/06/30 01:20:14;;;;;;;24.98;13.70;;;24.80;76.40;;;;;;5020377;28;20041;-56
2023/06/30 01:22:44;;;;;;;23.05;13.82;;;24.70;76.40;;;;;;5017752;28;20026;-56
2023/06/30 01:25:11;;;;;;;22.30;14.30;;;24.70;76.50;;;;;;5021066;28;20022;-56
2023/06/30 01:27:40;;;;;;;21.42;13.55;;;24.70;76.50;;;;;;5025572;28;20041;-56
2023/06/30 01:30:08;;;;;;;20.45;13.98;;;24.70;76.50;;;;;;5025353;28;20025;-56
2023/06/30 01:32:34;;;;;;;25.35;13.52;;;24.70;76.40;;;;;;5024460;28;20104;-56
2023/06/30 01:34:59;;;;;;;23.48;13.43;;;24.70;76.40;;;;;;5015081;28;20033;-56
2023/06/30 01:37:25;;;;;;;22.60;14.73;;;24.70;76.50;;;;;;5024648;28;20029;-56
2023/06/30 01:39:50;;;;;;;26.90;15.23;;;24.70;76.50;;;;;;5024377;28;20030;-56
2023/06/30 01:42:17;;;;;;;23.77;14.40;;;24.60;76.50;;;;;;5025332;28;20030;-56
2023/06/30 01:44:43;;;;;;;21.00;14.20;;;24.60;76.30;;;;;;5025961;28;20131;-56
2023/06/30 01:47:09;;;;;;;23.42;13.98;;;24.60;76.30;;;;;;5024248;28;20117;-56
2023/06/30 01:49:34;;;;;;;20.63;12.82;;;24.60;76.30;;;;;;5015599;28;20061;-56
2023/06/30 01:52:01;;;;;;;19.13;13.45;;;24.60;76.30;;;;;;4993692;28;20026;-56
2023/06/30 01:54:26;;;;;;;22.33;13.35;;;24.60;76.30;;;;;;5023764;28;20057;-56
2023/06/30 01:56:52;;;;;;;21.33;13.40;;;24.60;76.30;;;;;;5020016;28;20188;-57
2023/06/30 01:59:17;;;;;;;17.98;12.98;;;24.60;76.40;;;;;;5009101;28;20033;-56
2023/06/30 02:01:43;;;;;;;21.83;13.80;;;24.50;76.40;;;;;;5019831;28;20026;-56
2023/06/30 02:04:11;;;;;;;19.58;14.07;;;24.50;76.50;;;;;;5028767;28;20025;-56
2023/06/30 02:06:37;;;;;;;21.65;13.73;;;24.50;76.70;;;;;;5017206;28;20031;-56
2023/06/30 02:09:03;;;;;;;19.38;13.23;;;24.40;76.60;;;;;;5008783;28;20153;-56
2023/06/30 02:11:28;;;;;;;22.10;14.32;;;24.40;76.70;;;;;;5010297;28;20034;-56
2023/06/30 02:13:54;;;;;;;15.95;12.50;;;24.50;76.70;;;;;;5029052;28;20037;-56
2023/06/30 02:16:19;;;;;;;15.77;13.05;;;24.40;76.70;;;;;;5021659;28;20046;-56
2023/06/30 02:18:45;;;;;;;19.30;14.02;;;24.40;76.70;;;;;;5011652;28;20065;-56
2023/06/30 02:21:10;;;;;;;17.58;12.98;;;24.40;76.70;;;;;;5028061;28;20038;-56
2023/06/30 02:23:36;;;;;;;20.48;12.80;;;24.40;76.70;;;;;;5009514;28;20034;-55
2023/06/30 02:26:01;;;;;;;20.92;14.13;;;24.40;76.60;;;;;;5011715;28;20036;-56
2023/06/30 02:28:27;;;;;;;22.23;14.23;;;24.40;76.60;;;;;;5017648;28;20050;-56
2023/06/30 02:30:53;;;;;;;18.35;13.20;;;24.40;76.70;;;;;;5020942;28;20052;-56
2023/06/30 02:33:19;;;;;;;23.20;13.00;;;24.40;76.60;;;;;;5011017;28;20386;-56
2023/06/30 02:35:45;;;;;;;17.13;12.75;;;24.40;76.50;;;;;;5003176;28;20044;-56
2023/06/30 02:38:13;;;;;;;14.48;12.40;;;24.40;76.40;;;;;;5028587;28;20060;-56
2023/06/30 02:40:38;;;;;;;19.08;13.65;;;24.30;76.40;;;;;;5026519;28;20030;-56
2023/06/30 02:43:04;;;;;;;16.38;13.32;;;24.30;76.40;;;;;;5014037;28;20033;-56
2023/06/30 02:45:30;;;;;;;22.98;13.38;;;24.30;76.60;;;;;;5024751;28;20038;-56
2023/06/30 02:47:55;;;;;;;15.45;13.43;;;24.30;76.70;;;;;;5027985;28;20031;-56
2023/06/30 02:50:30;;;;;;;19.08;13.27;;;24.20;76.80;;;;;;5027450;28;20036;-56
2023/06/30 02:52:58;;;;;;;15.68;12.60;;;24.20;76.80;;;;;;5026477;28;20037;-56
2023/06/30 02:55:23;;;;;;;17.50;13.25;;;24.20;76.70;;;;;;5015555;28;20034;-56
2023/06/30 02:57:49;;;;;;;18.77;13.52;;;24.20;76.70;;;;;;5008759;28;20054;-56
2023/06/30 03:00:15;;;;;;;15.35;12.88;;;24.20;76.70;;;;;;5027236;28;20093;-56
2023/06/30 03:02:40;;;;;;;14.85;12.68;;;24.20;76.70;;;;;;5026959;28;20033;-56
2023/06/30 03:05:07;;;;;;;19.45;12.82;;;24.20;76.70;;;;;;5016026;28;20027;-56
2023/06/30 03:07:32;;;;;;;18.08;13.15;;;24.20;76.70;;;;;;5022432;28;20030;-56
2023/06/30 03:09:58;;;;;;;21.23;13.35;;;24.20;76.80;;;;;;5008940;28;20037;-56
2023/06/30 03:12:24;;;;;;;15.70;12.25;;;24.10;76.80;;;;;;5008103;28;20030;-56
2023/06/30 03:14:49;;;;;;;15.20;13.02;;;24.10;76.80;;;;;;5025258;28;20026;-56
2023/06/30 03:17:15;;;;;;;18.02;13.25;;;24.10;76.90;;;;;;5026845;28;20237;-56
2023/06/30 03:19:40;;;;;;;16.30;12.80;;;24.10;76.90;;;;;;5026512;28;20026;-56
2023/06/30 03:22:06;;;;;;;16.27;12.73;;;24.10;76.90;;;;;;5022410;28;20485;-56
2023/06/30 03:24:31;;;;;;;18.17;12.25;;;24.10;76.90;;;;;;5027136;28;20028;-56
2023/06/30 03:26:57;;;;;;;19.20;12.95;;;24.10;76.90;;;;;;5026803;28;20038;-56
2023/06/30 03:29:22;;;;;;;16.75;12.77;;;24.10;76.80;;;;;;5026514;28;20033;-56
2023/06/30 03:31:48;;;;;;;17.52;14.00;;;24.10;76.70;;;;;;5010157;28;20032;-56
2023/06/30 03:34:13;;;;;;;18.27;13.38;;;24.10;76.80;;;;;;5027037;28;20057;-56
2023/06/30 03:36:39;;;;;;;23.83;14.35;;;24.10;76.80;;;;;;5026756;28;20037;-56
2023/06/30 03:39:05;;;;;;;91.32;22.10;;;24.10;76.90;;;;;;5026298;28;20034;-56
2023/06/30 03:41:31;;;;;;;79.25;20.25;;;24.10;76.90;;;;;;5028258;28;20030;-56
2023/06/30 03:43:56;;;;;;;111.38;22.80;;;24.00;76.90;;;;;;5021181;28;20117;-56
2023/06/30 03:46:22;;;;;;;79.15;20.15;;;24.10;77.00;;;;;;5022350;28;20125;-56
2023/06/30 03:48:47;;;;;;;54.05;17.73;;;24.00;77.00;;;;;;5026469;28;20026;-56
2023/06/30 03:51:13;;;;;;;57.78;18.17;;;24.00;77.00;;;;;;5025114;28;20040;-56
2023/06/30 03:53:40;;;;;;;50.20;16.38;;;24.00;76.90;;;;;;5020843;28;20023;-56
2023/06/30 03:56:06;;;;;;;61.60;17.83;;;24.00;77.00;;;;;;5018111;28;20045;-56
2023/06/30 03:58:31;;;;;;;57.10;17.25;;;24.00;77.00;;;;;;5025984;28;20030;-56
2023/06/30 04:00:57;;;;;;;54.10;17.58;;;24.00;76.90;;;;;;5027635;28;20064;-56
2023/06/30 04:03:22;;;;;;;57.08;18.10;;;24.00;76.90;;;;;;5011096;28;20022;-56
2023/06/30 04:05:48;;;;;;;47.03;16.48;;;24.00;76.90;;;;;;5023783;28;20632;-56
2023/06/30 04:08:13;;;;;;;52.85;17.35;;;24.00;77.00;;;;;;5027233;28;20029;-56
2023/06/30 04:10:39;;;;;;;50.97;17.15;;;24.00;76.90;;;;;;5026798;28;20129;-54
2023/06/30 04:13:08;;;;;;;52.33;16.60;;;24.00;76.90;;;;;;5022516;28;20043;-56
2023/06/30 04:15:33;;;;;;;50.70;16.05;;;24.00;77.00;;;;;;5012567;28;20041;-56
2023/06/30 04:17:59;;;;;;;46.65;16.73;;;24.00;77.10;;;;;;5027239;28;20040;-56
2023/06/30 04:20:25;;;;;;;55.50;16.58;;;24.00;77.10;;;;;;5026612;28;20034;-56
2023/06/30 04:22:50;;;;;;;40.53;16.42;;;24.00;76.90;;;;;;5027103;28;20034;-56
2023/06/30 04:25:16;;;;;;;35.45;15.95;;;24.00;76.90;;;;;;5026437;28;20086;-56
2023/06/30 04:27:41;;;;;;;47.97;16.92;;;24.00;76.90;;;;;;5026888;28;20049;-56
2023/06/30 04:30:07;;;;;;;44.20;15.65;;;24.00;76.90;;;;;;5011474;28;20033;-56
2023/06/30 04:32:33;;;;;;;51.95;17.48;;;24.00;76.90;;;;;;5027480;28;20037;-56
2023/06/30 04:34:58;;;;;;;44.83;17.55;;;24.00;76.80;;;;;;5007018;28;20041;-56
2023/06/30 04:37:28;;;;;;;38.53;16.80;;;24.00;77.00;;;;;;5021556;28;20036;-56
2023/06/30 04:39:55;;;;;;;40.70;16.92;;;24.00;77.10;;;;;;5024935;28;20068;-56
2023/06/30 04:42:20;;;;;;;48.03;17.42;;;24.10;77.40;;;;;;5024845;28;20026;-57
2023/06/30 04:44:46;;;;;;;42.05;16.98;;;24.00;77.20;;;;;;5025969;28;20053;-56
2023/06/30 04:47:12;;;;;;;37.65;16.15;;;24.00;77.10;;;;;;5027453;28;20026;-56
2023/06/30 04:49:38;;;;;;;33.55;16.30;;;24.00;77.40;;;;;;5026858;28;20022;-56
2023/06/30 04:52:04;;;;;;;39.03;16.00;;;24.00;77.40;;;;;;5025240;28;20026;-56
2023/06/30 04:54:30;;;;;;;29.02;15.23;;;24.00;77.30;;;;;;5023929;28;20382;-56
2023/06/30 04:56:56;;;;;;;36.50;15.32;;;24.00;77.50;;;;;;5025085;28;20029;-57
2023/06/30 04:59:22;;;;;;;32.40;15.88;;;24.00;77.70;;;;;;5025019;28;20092;-56
2023/06/30 05:01:47;;;;;;;34.20;14.55;;;24.00;77.80;;;;;;5008134;28;20052;-57
2023/06/30 05:04:13;;;;;;;35.08;13.77;;;24.00;77.90;;;;;;5026260;28;20030;-57
2023/06/30 05:06:39;;;;;;;27.33;14.15;;;24.00;77.90;;;;;;5018227;28;20386;-56
2023/06/30 05:09:05;;;;;;;28.98;13.90;;;24.00;77.90;;;;;;5017118;28;20025;-56
2023/06/30 05:11:30;;;;;;;30.40;13.65;;;24.00;77.90;;;;;;5024863;28;20041;-57
2023/06/30 05:13:56;;;;;;;21.42;12.18;;;24.00;77.90;;;;;;5025549;28;20030;-57
2023/06/30 05:16:22;;;;;;;24.10;13.43;;;23.90;77.80;;;;;;5025639;28;20034;-58
2023/06/30 05:18:47;;;;;;;36.00;13.13;;;24.00;78.00;;;;;;5015783;28;20034;-57
2023/06/30 05:21:13;;;;;;;22.80;13.13;;;23.90;78.00;;;;;;5019087;28;20121;-56
2023/06/30 05:23:38;;;;;;;19.95;11.95;;;23.90;78.00;;;;;;5009364;28;20030;-57
2023/06/30 05:26:05;;;;;;;26.77;12.50;;;23.90;78.10;;;;;;4992148;28;20033;-56
2023/06/30 05:28:31;;;;;;;26.83;11.98;;;23.90;78.10;;;;;;5026308;28;20034;-57
2023/06/30 05:30:56;;;;;;;25.52;12.27;;;23.90;78.20;;;;;;5016991;28;20056;-56
2023/06/30 05:33:22;;;;;;;24.02;12.60;;;23.90;78.50;;;;;;5025034;28;20041;-57
2023/06/30 05:35:47;;;;;;;26.50;11.07;;;23.80;78.60;;;;;;5026512;28;20381;-56
2023/06/30 05:38:13;;;;;;;18.60;11.20;;;23.90;78.60;;;;;;5008601;28;20034;-56
2023/06/30 05:40:38;;;;;;;16.55;11.48;;;23.90;78.70;;;;;;5024448;28;20026;-56
2023/06/30 05:43:04;;;;;;;21.95;11.63;;;23.90;78.60;;;;;;5024072;28;20034;-57
2023/06/30 05:45:30;;;;;;;19.23;11.70;;;23.80;78.50;;;;;;5026244;28;20034;-57
2023/06/30 05:47:56;;;;;;;24.65;11.80;;;23.90;78.50;;;;;;5008322;28;20030;-56
2023/06/30 05:50:23;;;;;;;17.23;11.60;;;23.80;78.40;;;;;;5004375;28;20031;-52
2023/06/30 05:52:48;;;;;;;21.20;10.93;;;23.90;78.60;;;;;;5005636;28;20035;-52
2023/06/30 05:55:14;;;;;;;24.58;11.50;;;23.90;78.60;;;;;;5013741;28;20031;-52
2023/06/30 05:57:40;;;;;;;19.50;11.68;;;23.90;78.60;;;;;;5020898;28;20087;-52
2023/06/30 06:00:07;;;;;;;17.77;10.55;;;23.90;78.60;;;;;;5024257;28;20033;-52
2023/06/30 06:02:33;;;;;;;21.52;10.70;;;23.80;78.50;;;;;;5024166;28;20030;-51
2023/06/30 06:04:59;;;;;;;18.17;10.35;;;23.90;78.60;;;;;;5023606;28;20363;-52
2023/06/30 06:07:24;;;;;;;17.17;10.48;;;23.90;78.70;;;;;;5013348;28;20054;-52
2023/06/30 06:09:50;;;;;;;18.25;10.20;;;23.90;79.00;;;;;;5004956;28;20058;-52
2023/06/30 06:12:15;;;;;;;17.35;10.50;;;23.90;79.00;;;;;;5006305;28;20098;-52
2023/06/30 06:14:41;;;;;;;14.02;9.52;;;23.90;79.10;;;;;;5004132;28;20042;-52
2023/06/30 06:17:07;;;;;;;19.75;10.40;;;23.90;79.20;;;;;;5024633;28;20033;-52
2023/06/30 06:19:33;;;;;;;13.25;9.60;;;23.90;79.20;;;;;;5024035;28;20036;-51
2023/06/30 06:21:58;;;;;;;18.77;10.70;;;23.90;79.00;;;;;;5024265;28;20061;-52
2023/06/30 06:24:24;;;;;;;16.00;9.95;;;23.90;79.10;;;;;;5023153;28;20149;-52
2023/06/30 06:26:49;;;;;;;18.52;9.73;;;23.90;79.00;;;;;;5017511;28;20018;-52
2023/06/30 06:29:19;;;;;;;22.83;9.68;;;23.90;79.10;;;;;;5019930;28;20030;-51
2023/06/30 06:31:45;;;;;;;20.50;10.27;;;23.80;79.20;;;;;;5016878;28;20082;-52
2023/06/30 06:34:11;;;;;;;22.55;9.55;;;23.90;79.30;;;;;;5012961;28;20036;-52
2023/06/30 06:36:37;;;;;;;27.55;10.45;;;23.90;79.50;;;;;;5022855;28;20050;-52
2023/06/30 06:39:03;;;;;;;28.10;9.50;;;23.80;79.70;;;;;;5022852;28;20053;-52
2023/06/30 06:41:29;;;;;;;23.48;9.32;;;23.90;79.80;;;;;;5024262;28;20097;-52
2023/06/30 06:43:54;;;;;;;19.52;10.07;;;23.80;79.80;;;;;;5023287;28;20057;-52
2023/06/30 06:46:20;;;;;;;19.85;9.43;;;23.80;79.80;;;;;;5010256;28;20034;-52
2023/06/30 06:48:45;;;;;;;23.27;10.20;;;23.90;79.90;;;;;;5026817;28;20090;-52
2023/06/30 06:51:11;;;;;;;22.75;10.00;;;23.80;79.80;;;;;;5029286;28;20042;-52
2023/06/30 06:53:37;;;;;;;34.63;10.50;;;23.80;79.80;;;;;;5024077;28;20026;-52
2023/06/30 06:56:03;;;;;;;33.97;11.20;;;23.90;79.70;;;;;;5017888;28;20030;-52
2023/06/30 06:58:30;;;;;;;31.30;10.15;;;23.90;79.70;;;;;;5019621;28;20033;-52
2023/06/30 07:00:56;;;;;;;36.30;11.27;;;23.90;79.70;;;;;;5026106;28;20040;-52
2023/06/30 07:03:22;;;;;;;50.95;11.52;;;23.90;79.70;;;;;;5025791;28;20109;-52
2023/06/30 07:05:47;;;;;;;36.08;11.60;;;23.90;79.70;;;;;;5019002;28;20026;-52
2023/06/30 07:08:14;;;;;;;46.03;11.07;;;23.80;79.80;;;;;;5022265;28;20169;-52
2023/06/30 07:10:39;;;;;;;44.30;11.73;;;23.90;79.90;;;;;;5021782;28;20401;-52
2023/06/30 07:13:05;;;;;;;58.50;13.68;;;23.80;80.00;;;;;;5020599;28;20053;-52
2023/06/30 07:15:31;;;;;;;38.92;12.20;;;23.80;80.60;;;;;;5016739;28;20037;-52
2023/06/30 07:17:56;;;;;;;152.13;21.10;;;23.90;81.80;;;;;;5016627;28;20084;-51
2023/06/30 07:20:23;;;;;;;131.80;18.13;;;23.90;81.80;;;;;;5011868;28;20030;-51
2023/06/30 07:22:48;;;;;;;138.20;19.58;;;23.80;82.50;;;;;;5019090;28;20042;-51
2023/06/30 07:25:14;;;;;;;61.33;13.77;;;23.70;83.00;;;;;;5009769;28;20030;-51
2023/06/30 07:27:40;;;;;;;59.22;13.23;;;23.70;83.60;;;;;;5013905;28;20109;-51
2023/06/30 07:30:06;;;;;;;91.93;15.95;;;23.60;84.10;;;;;;5015607;28;20026;-51
2023/06/30 07:32:33;;;;;;;67.72;14.05;;;23.60;84.30;;;;;;5023100;28;20049;-51
2023/06/30 07:34:58;;;;;;;106.28;17.30;;;23.50;84.30;;;;;;5012123;28;20033;-51
2023/06/30 07:37:24;;;;;;;120.75;18.52;;;23.50;84.90;;;;;;5003433;28;20448;-51
2023/06/30 07:39:49;;;;;;;109.63;17.35;;;23.40;85.10;;;;;;5016078;28;20085;-51
2023/06/30 07:42:15;;;;;;;98.13;18.70;;;23.40;85.40;;;;;;5017420;28;20048;-52
2023/06/30 07:44:41;;;;;;;79.10;14.60;;;23.40;85.70;;;;;;5019132;28;20034;-51
2023/06/30 07:47:06;;;;;;;59.78;13.10;;;23.30;85.70;;;;;;5008650;28;20049;-51
2023/06/30 07:49:32;;;;;;;59.35;13.63;;;23.30;86.10;;;;;;5021220;28;20065;-51
2023/06/30 07:51:57;;;;;;;84.05;15.35;;;23.20;86.50;;;;;;5009452;28;20029;-51
2023/06/30 07:54:23;;;;;;;56.38;13.73;;;23.30;86.90;;;;;;5019759;28;20030;-51
2023/06/30 07:56:48;;;;;;;69.97;14.52;;;23.20;86.30;;;;;;5011232;28;20026;-53
2023/06/30 07:59:14;;;;;;;53.08;13.95;;;23.10;86.10;;;;;;5017588;28;20034;-51
2023/06/30 08:01:39;;;;;;;62.13;15.20;;;23.10;86.10;;;;;;5016348;28;20045;-51
2023/06/30 08:04:05;;;;;;;65.75;14.35;;;23.10;86.20;;;;;;5018353;28;20484;-51
2023/06/30 08:06:30;;;;;;;56.58;14.00;;;23.10;86.30;;;;;;5012766;28;20026;-51
2023/06/30 08:08:56;;;;;;;56.05;12.55;;;23.10;86.20;;;;;;5002399;28;20029;-51
2023/06/30 08:11:21;;;;;;;49.60;12.68;;;23.10;86.30;;;;;;5007133;28;20037;-51
2023/06/30 08:13:47;;;;;;;70.90;14.55;;;23.20;86.40;;;;;;5020352;28;20022;-51
2023/06/30 08:16:12;;;;;;;72.32;16.30;;;23.20;86.70;;;;;;5020978;28;20097;-51
2023/06/30 08:18:38;;;;;;;79.90;16.92;;;23.10;86.90;;;;;;5019757;28;20025;-51
2023/06/30 08:21:04;;;;;;;65.22;13.95;;;23.20;86.90;;;;;;5020909;28;20050;-51
2023/06/30 08:23:29;;;;;;;55.33;13.82;;;23.20;86.60;;;;;;5017948;28;20022;-52
2023/06/30 08:25:55;;;;;;;91.32;16.42;;;23.20;86.30;;;;;;5017733;28;20035;-51
2023/06/30 08:28:21;;;;;;;71.20;15.45;;;23.20;86.10;;;;;;5008944;28;20056;-51
2023/06/30 08:30:47;;;;;;;81.57;15.30;;;23.20;85.90;;;;;;5021917;28;20255;-52
2023/06/30 08:33:13;;;;;;;69.75;15.93;;;23.30;85.90;;;;;;5023187;28;20517;-51
2023/06/30 08:35:38;;;;;;;97.57;17.67;;;23.30;85.70;;;;;;5034365;28;20064;-51
2023/06/30 08:38:04;;;;;;;87.45;17.83;;;23.30;85.60;;;;;;5008532;28;20033;-51
2023/06/30 08:40:31;;;;;;;77.10;17.42;;;23.30;85.60;;;;;;5006884;28;20054;-51
2023/06/30 08:43:02;;;;;;;103.32;18.85;;;23.40;85.40;;;;;;5007366;28;20025;-51
2023/06/30 08:45:28;;;;;;;133.27;21.80;;;23.40;85.60;;;;;;5019378;28;20034;-51
2023/06/30 08:47:56;;;;;;;114.40;22.13;;;23.40;86.20;;;;;;5020300;28;20048;-51
2023/06/30 08:50:22;;;;;;;178.35;26.05;;;23.50;86.60;;;;;;5012438;28;20064;-51
2023/06/30 08:52:48;;;;;;;167.55;25.02;;;23.50;86.90;;;;;;5018572;28;20401;-51
2023/06/30 08:55:13;;;;;;;131.75;21.77;;;23.50;86.70;;;;;;5021400;28;20125;-51
2023/06/30 08:57:41;;;;;;;143.05;23.95;;;23.50;86.40;;;;;;5021890;28;20501;-51
2023/06/30 09:00:07;;;;;;;136.50;23.85;;;23.50;86.80;;;;;;5021987;28;20013;-51
2023/06/30 09:02:33;;;;;;;142.68;23.42;;;23.50;86.60;;;;;;5021680;28;20017;-51
2023/06/30 09:04:58;;;;;;;148.52;24.52;;;23.50;86.50;;;;;;5008436;28;20081;-51
2023/06/30 09:07:27;;;;;;;136.88;24.60;;;23.50;87.20;;;;;;5021404;28;20061;-52
2023/06/30 09:09:57;;;;;;;148.25;24.48;;;23.50;86.20;;;;;;5014795;28;20458;-51
2023/06/30 09:12:23;;;;;;;174.27;26.10;;;23.50;86.30;;;;;;5010407;28;20538;-51
2023/06/30 09:14:48;;;;;;;147.02;27.15;;;23.50;86.40;;;;;;5009951;28;20045;-51
2023/06/30 09:17:14;;;;;;;169.90;27.25;;;23.50;86.30;;;;;;5011862;28;20037;-51
2023/06/30 09:19:39;;;;;;;203.82;30.65;;;23.50;86.30;;;;;;5010152;28;20038;-51
2023/06/30 09:22:05;;;;;;;199.02;31.33;;;23.50;86.00;;;;;;5016514;28;20026;-51
2023/06/30 09:24:30;;;;;;;224.20;31.05;;;23.60;86.40;;;;;;5012058;28;20084;-53
2023/06/30 09:26:56;;;;;;;161.10;29.30;;;23.60;86.00;;;;;;5022883;28;20037;-51
2023/06/30 09:29:22;;;;;;;117.75;25.23;;;23.60;85.70;;;;;;5002908;28;20037;-51
2023/06/30 09:31:51;;;;;;;143.48;26.77;;;23.60;85.00;;;;;;5024254;28;20084;-51
2023/06/30 09:34:19;;;;;;;154.15;25.77;;;23.60;85.00;;;;;;5019546;28;20053;-51
2023/06/30 09:36:52;;;;;;;124.07;25.55;;;23.60;85.30;;;;;;5010239;28;20165;-51
2023/06/30 09:39:21;;;;;;;156.65;27.10;;;23.70;84.90;;;;;;5021381;28;20030;-51
2023/06/30 09:41:47;;;;;;;138.90;26.90;;;23.70;84.50;;;;;;5019030;28;20037;-51
2023/06/30 09:44:14;;;;;;;144.52;28.15;;;23.80;84.50;;;;;;4993601;28;20134;-51
2023/06/30 09:46:47;;;;;;;155.90;27.35;;;23.90;84.30;;;;;;5039489;28;20034;-51
2023/06/30 09:49:32;;;;;;;174.48;30.83;;;23.90;84.20;;;;;;5014713;28;20058;-51
2023/06/30 09:52:05;;;;;;;188.75;30.90;;;24.00;84.00;;;;;;5021951;28;20041;-51
2023/06/30 09:54:30;;;;;;;153.15;28.77;;;24.00;83.80;;;;;;5018505;28;20034;-51
2023/06/30 09:57:00;;;;;;;167.73;29.77;;;24.10;83.60;;;;;;5016696;28;20022;-51
2023/06/30 09:59:25;;;;;;;163.43;30.65;;;24.10;83.30;;;;;;5012667;28;20026;-51
2023/06/30 10:01:54;;;;;;;184.35;30.05;;;24.20;83.30;;;;;;5024351;28;20385;-51
2023/06/30 10:04:20;;;;;;;168.98;28.33;;;24.20;83.00;;;;;;5022220;28;20096;-51
2023/06/30 10:06:50;;;;;;;128.30;28.58;;;24.20;82.70;;;;;;5011151;28;20035;-50
2023/06/30 10:09:16;;;;;;;136.57;27.73;;;24.30;82.60;;;;;;5016883;28;20049;-51
2023/06/30 10:11:43;;;;;;;178.45;30.52;;;24.30;82.30;;;;;;5014126;28;20462;-51
2023/06/30 10:14:09;;;;;;;119.82;28.00;;;24.30;82.00;;;;;;5016695;28;20026;-51
2023/06/30 10:16:34;;;;;;;129.23;28.58;;;24.40;81.90;;;;;;5016232;28;20040;-51
2023/06/30 10:19:01;;;;;;;150.77;27.15;;;24.40;81.60;;;;;;5018167;28;20022;-51
2023/06/30 10:21:27;;;;;;;155.27;30.95;;;24.40;81.40;;;;;;5022252;28;20034;-51
2023/06/30 10:23:53;;;;;;;126.97;27.33;;;24.50;81.20;;;;;;4997144;28;20072;-50
2023/06/30 10:26:21;;;;;;;147.02;31.73;;;24.50;81.10;;;;;;5017322;28;20052;-51
2023/06/30 10:28:47;;;;;;;169.68;30.75;;;24.50;80.90;;;;;;5022295;28;20038;-51
2023/06/30 10:31:13;;;;;;;165.93;31.17;;;24.60;81.20;;;;;;5014128;28;20044;-51
2023/06/30 10:33:38;;;;;;;135.77;28.92;;;24.60;81.10;;;;;;5021747;28;20085;-51
2023/06/30 10:36:04;;;;;;;127.55;27.73;;;24.70;80.90;;;;;;5016536;28;20030;-51
2023/06/30 10:38:30;;;;;;;141.82;29.70;;;24.70;80.70;;;;;;5020655;28;20038;-51
2023/06/30 10:41:25;;;;;;;147.95;29.50;;;24.70;80.60;;;;;;5023849;28;20034;-51
2023/06/30 10:44:03;;;;;;;158.00;30.02;;;24.80;80.40;;;;;;4985840;28;20035;-51
2023/06/30 10:46:48;;;;;;;143.00;29.98;;;24.80;80.30;;;;;;5025209;28;20037;-52
2023/06/30 10:49:29;;;;;;;158.55;31.55;;;24.80;80.50;;;;;;5025558;28;20068;-51
2023/06/30 10:51:56;;;;;;;132.95;27.95;;;24.90;80.30;;;;;;4996104;28;20454;-50
2023/06/30 10:54:25;;;;;;;127.63;29.40;;;24.90;80.20;;;;;;5019132;28;20029;-51
2023/06/30 10:56:51;;;;;;;130.77;29.52;;;24.90;80.10;;;;;;5010022;28;20034;-51
2023/06/30 10:59:21;;;;;;;150.55;30.25;;;24.90;79.90;;;;;;5018516;28;20058;-51
2023/06/30 11:02:12;;;;;;;155.13;31.17;;;25.00;79.80;;;;;;5006836;28;20033;-51
2023/06/30 11:04:39;;;;;;;130.52;28.45;;;25.00;79.90;;;;;;5016042;28;20030;-52
2023/06/30 11:07:06;;;;;;;140.30;29.13;;;25.00;79.70;;;;;;5026650;28;20481;-51
2023/06/30 11:09:47;;;;;;;150.43;29.67;;;25.00;79.50;;;;;;5009561;28;20090;-51
2023/06/30 11:12:25;;;;;;;126.55;27.77;;;25.10;79.30;;;;;;5011589;28;20040;-51
2023/06/30 11:14:57;;;;;;;153.32;31.50;;;25.20;79.10;;;;;;5022859;28;20025;-52
2023/06/30 11:17:23;;;;;;;161.43;31.35;;;25.20;78.70;;;;;;5038775;28;20030;-51
2023/06/30 11:20:12;;;;;;;119.78;27.40;;;25.20;78.50;;;;;;5016501;28;20022;-51
2023/06/30 11:22:39;;;;;;;151.10;29.45;;;25.30;78.20;;;;;;5011520;28;20085;-52
2023/06/30 11:25:05;;;;;;;146.88;29.83;;;25.30;77.70;;;;;;5015828;28;20079;-51
2023/06/30 11:27:31;;;;;;;139.00;28.40;;;25.20;77.40;;;;;;5023301;28;20030;-51
2023/06/30 11:29:59;;;;;;;138.73;29.08;;;25.20;77.10;;;;;;5014097;28;20037;-51
2023/06/30 11:32:32;;;;;;;132.32;26.98;;;25.30;77.20;;;;;;5022460;28;20038;-51
2023/06/30 11:35:01;;;;;;;99.53;26.25;;;25.30;77.00;;;;;;5014937;28;20030;-51
2023/06/30 11:37:27;;;;;;;165.55;30.48;;;25.30;76.70;;;;;;5022568;28;20034;-51
2023/06/30 11:39:53;;;;;;;172.40;31.75;;;25.30;76.70;;;;;;5026945;28;20104;-52
2023/06/30 11:42:19;;;;;;;184.93;30.65;;;25.30;76.60;;;;;;5025329;28;20092;-51
2023/06/30 11:44:45;;;;;;;156.48;30.52;;;25.40;76.70;;;;;;5005880;28;20066;-52
2023/06/30 11:47:11;;;;;;;119.97;28.27;;;25.40;76.60;;;;;;5024913;28;20017;-52
2023/06/30 11:49:36;;;;;;;128.60;29.05;;;25.40;76.50;;;;;;5010866;28;20030;-51
2023/06/30 11:52:04;;;;;;;123.35;28.60;;;25.40;76.60;;;;;;5028103;28;20026;-51
2023/06/30 11:54:31;;;;;;;140.20;28.25;;;25.40;76.40;;;;;;5008228;28;20079;-51
2023/06/30 11:57:00;;;;;;;84.45;23.63;;;25.40;76.20;;;;;;5023374;28;20030;-52
2023/06/30 11:59:26;;;;;;;96.68;24.77;;;25.40;76.20;;;;;;5018661;28;20030;-51
2023/06/30 12:01:52;;;;;;;89.15;23.17;;;25.50;76.20;;;;;;5030690;28;20440;-51
2023/06/30 12:04:17;;;;;;;70.72;22.60;;;25.50;75.90;;;;;;4988616;28;20026;-52
2023/06/30 12:06:46;;;;;;;96.53;23.80;;;25.50;76.00;;;;;;5016272;28;20034;-51
2023/06/30 12:09:12;;;;;;;99.82;23.95;;;25.50;76.00;;;;;;5039382;28;20025;-51
2023/06/30 12:11:41;;;;;;;107.55;23.83;;;25.50;76.10;;;;;;5028095;28;20033;-51
2023/06/30 12:14:07;;;;;;;114.45;25.88;;;25.50;76.40;;;;;;5011113;28;20066;-52
2023/06/30 12:16:49;;;;;;;93.88;23.52;;;25.50;76.40;;;;;;5003662;28;20088;-52
2023/06/30 12:19:15;;;;;;;89.82;22.98;;;25.50;76.70;;;;;;4990859;28;20185;-51
2023/06/30 12:22:00;;;;;;;120.55;25.27;;;25.50;76.90;;;;;;5013693;28;20121;-53